Time;durP1;ratioP1;P1;durP2;ratioP2;P2;SDS_P1;SDS_P2;PMS_P1;PMS_P2;Temp;Humidity;BMP_temperature;BMP_pressure;BME280_temperature;BME280_humidity;BME280_pressure;Samples;Min_cycle;Max_cycle;Signal;HPM_P1;HPM_P2
2024/01/15 00:00:08;;;;;;;6.90;4.57;;;;;;;18.12;37.86;100327.13;4966866;28;20057;-71
2024/01/15 00:02:33;;;;;;;9.13;5.32;;;;;;;18.09;37.61;100315.03;4966759;28;20030;-71
2024/01/15 00:04:58;;;;;;;8.88;5.10;;;;;;;18.09;37.89;100314.22;4967898;28;20042;-71
2024/01/15 00:07:24;;;;;;;7.97;4.90;;;;;;;18.18;37.57;100329.19;4968043;28;20182;-72
2024/01/15 00:09:49;;;;;;;10.45;5.50;;;;;;;18.11;37.37;100323.63;4968165;28;20470;-71
2024/01/15 00:12:14;;;;;;;9.05;5.38;;;;;;;18.15;37.54;100326.00;4971774;28;20026;-71
2024/01/15 00:14:40;;;;;;;7.93;4.90;;;;;;;18.09;37.49;100322.13;4971286;28;20109;-72
2024/01/15 00:17:05;;;;;;;8.35;5.43;;;;;;;18.12;37.43;100322.66;4971358;28;20525;-71
2024/01/15 00:19:32;;;;;;;7.30;4.60;;;;;;;18.07;37.54;100305.59;4971220;28;20543;-71
2024/01/15 00:21:57;;;;;;;7.07;4.95;;;;;;;18.00;37.38;100293.94;4971509;28;20042;-71
2024/01/15 00:24:22;;;;;;;7.97;5.03;;;;;;;18.08;37.70;100309.91;4971134;28;20595;-71
2024/01/15 00:26:48;;;;;;;6.57;4.67;;;;;;;18.00;37.31;100299.22;4971404;28;20117;-72
2024/01/15 00:29:13;;;;;;;7.32;4.65;;;;;;;17.96;37.26;100293.38;4971224;28;20264;-71
2024/01/15 00:31:38;;;;;;;8.00;4.63;;;;;;;18.03;37.35;100301.56;4970968;28;20062;-71
2024/01/15 00:34:04;;;;;;;7.00;4.40;;;;;;;17.98;37.06;100299.34;4970619;28;20049;-71
2024/01/15 00:36:29;;;;;;;7.55;4.53;;;;;;;17.89;37.35;100281.69;4970410;28;20730;-72
2024/01/15 00:38:54;;;;;;;9.07;5.03;;;;;;;17.90;37.22;100281.56;4970563;28;20042;-71
2024/01/15 00:41:20;;;;;;;6.40;4.10;;;;;;;17.87;37.35;100267.81;4970524;28;20027;-72
2024/01/15 00:43:45;;;;;;;6.82;4.30;;;;;;;17.93;37.04;100277.84;4970189;28;20105;-71
2024/01/15 00:46:11;;;;;;;5.82;3.85;;;;;;;17.89;37.18;100274.63;4970132;28;20061;-71
2024/01/15 00:48:37;;;;;;;7.47;3.88;;;;;;;17.87;36.92;100266.00;4970064;28;20455;-72
2024/01/15 00:51:02;;;;;;;5.95;3.80;;;;;;;17.90;37.01;100273.66;4970096;28;20026;-72
2024/01/15 00:53:28;;;;;;;7.10;3.63;;;;;;;17.94;37.12;100275.06;4970058;28;20054;-72
2024/01/15 00:55:53;;;;;;;6.43;3.30;;;;;;;17.91;37.16;100266.56;4969940;28;20125;-73
2024/01/15 00:58:19;;;;;;;5.70;3.30;;;;;;;17.92;36.95;100266.44;4970295;28;20474;-71
2024/01/15 01:00:44;;;;;;;6.55;3.38;;;;;;;17.91;36.85;100266.56;4969809;28;20117;-72
2024/01/15 01:03:10;;;;;;;5.53;2.80;;;;;;;17.87;36.97;100268.63;4969448;28;20043;-73
2024/01/15 01:05:35;;;;;;;5.50;3.13;;;;;;;17.90;36.90;100265.75;4970156;28;20038;-73
2024/01/15 01:08:01;;;;;;;6.10;2.70;;;;;;;17.85;36.72;100261.81;4970854;28;20038;-73
2024/01/15 01:10:26;;;;;;;4.35;2.33;;;;;;;17.87;36.75;100267.81;4970535;28;20034;-72
2024/01/15 01:12:52;;;;;;;4.97;2.78;;;;;;;17.74;36.67;100244.34;4970470;28;20085;-72
2024/01/15 01:15:17;;;;;;;5.75;2.40;;;;;;;17.84;36.55;100260.16;4968302;28;20034;-72
2024/01/15 01:17:42;;;;;;;5.03;2.67;;;;;;;17.81;36.80;100265.72;4969461;28;20085;-72
2024/01/15 01:20:10;;;;;;;5.38;2.38;;;;;;;17.74;36.60;100245.16;4969149;28;20066;-73
2024/01/15 01:22:36;;;;;;;5.75;2.53;;;;;;;17.69;36.49;100244.75;4969556;28;20030;-73
2024/01/15 01:25:01;;;;;;;4.15;2.10;;;;;;;17.81;36.48;100252.53;4969495;28;20042;-72
2024/01/15 01:27:26;;;;;;;4.70;1.92;;;;;;;17.76;36.39;100248.50;4969235;28;20198;-73
2024/01/15 01:29:52;;;;;;;3.83;1.70;;;;;;;17.49;36.46;100209.63;4969477;28;20038;-73
2024/01/15 01:32:18;;;;;;;4.10;1.98;;;;;;;17.67;36.75;100244.03;4969712;28;20779;-72
2024/01/15 01:34:43;;;;;;;3.92;2.03;;;;;;;17.77;36.55;100258.06;4969940;28;20525;-72
2024/01/15 01:37:09;;;;;;;3.50;1.58;;;;;;;17.70;36.36;100253.47;4970133;28;20117;-72
2024/01/15 01:39:35;;;;;;;3.65;1.80;;;;;;;17.73;36.27;100256.66;4970048;28;20038;-72
2024/01/15 01:42:00;;;;;;;3.90;1.70;;;;;;;17.69;36.47;100252.66;4969959;28;20101;-72
2024/01/15 01:44:26;;;;;;;3.75;1.95;;;;;;;17.66;36.15;100249.47;4969835;28;20043;-72
2024/01/15 01:46:51;;;;;;;4.18;1.80;;;;;;;17.62;36.39;100240.97;4969956;28;20043;-73
2024/01/15 01:49:17;;;;;;;3.78;1.70;;;;;;;17.63;36.33;100247.09;4969979;28;20074;-73
2024/01/15 01:51:42;;;;;;;3.70;1.52;;;;;;;17.69;36.34;100257.94;4969740;28;20030;-72
2024/01/15 01:54:11;;;;;;;4.13;1.58;;;;;;;17.64;36.44;100252.25;4969788;28;20023;-73
2024/01/15 01:56:37;;;;;;;3.28;1.63;;;;;;;17.58;36.50;100240.41;4969519;28;20070;-73
2024/01/15 01:59:03;;;;;;;4.88;1.52;;;;;;;17.59;36.39;100246.50;4969819;28;20067;-73
2024/01/15 02:01:31;;;;;;;3.40;1.50;;;;;;;17.66;36.36;100258.19;4984179;28;20031;-72
2024/01/15 02:03:56;;;;;;;4.13;1.80;;;;;;;17.57;36.01;100244.00;4968581;28;20047;-73
2024/01/15 02:06:23;;;;;;;4.00;1.48;;;;;;;17.64;36.50;100257.50;4969495;28;20041;-72
2024/01/15 02:08:48;;;;;;;4.15;1.63;;;;;;;17.61;36.13;100255.13;4969494;28;20391;-73
2024/01/15 02:11:13;;;;;;;6.15;1.55;;;;;;;17.53;36.20;100241.78;4969620;28;20031;-73
2024/01/15 02:13:39;;;;;;;3.55;1.33;;;;;;;17.58;36.19;100243.06;4969547;28;20369;-73
2024/01/15 02:16:05;;;;;;;2.28;1.20;;;;;;;17.59;36.40;100254.41;4969043;28;20117;-71
2024/01/15 02:18:40;;;;;;;2.85;1.17;;;;;;;17.59;36.14;100257.06;4968632;28;20134;-72
2024/01/15 02:21:05;;;;;;;3.88;1.20;;;;;;;17.58;36.30;100250.13;4968706;28;20129;-71
2024/01/15 02:23:30;;;;;;;3.63;1.17;;;;;;;17.48;36.52;100247.47;4968475;28;20516;-72
2024/01/15 02:25:56;;;;;;;3.73;1.27;;;;;;;17.46;36.24;100233.59;4968372;28;20046;-73
2024/01/15 02:28:21;;;;;;;2.58;1.20;;;;;;;17.48;36.24;100239.59;4968178;28;20269;-72
2024/01/15 02:30:46;;;;;;;3.53;1.30;;;;;;;17.47;36.49;100232.63;4968349;28;20041;-72
2024/01/15 02:33:12;;;;;;;3.75;1.30;;;;;;;17.55;36.63;100253.88;4967527;28;20038;-72
2024/01/15 02:35:37;;;;;;;4.22;1.30;;;;;;;17.52;36.58;100248.03;4967892;28;20480;-71
2024/01/15 02:38:04;;;;;;;3.90;1.10;;;;;;;17.40;36.48;100234.13;4968474;28;20487;-72
2024/01/15 02:40:29;;;;;;;3.70;1.13;;;;;;;17.41;36.70;100231.38;4968266;28;20039;-71
2024/01/15 02:42:54;;;;;;;3.17;1.20;;;;;;;17.50;36.58;100242.06;4968287;28;20038;-71
2024/01/15 02:45:20;;;;;;;3.50;1.13;;;;;;;17.48;36.79;100241.38;4968114;28;20568;-72
2024/01/15 02:47:46;;;;;;;3.15;1.10;;;;;;;17.38;36.46;100223.72;4968343;28;20051;-70
2024/01/15 02:50:11;;;;;;;3.67;1.20;;;;;;;17.37;36.22;100224.72;4968625;28;20027;-71
2024/01/15 02:52:36;;;;;;;3.97;1.05;;;;;;;17.46;36.54;100238.03;4968946;28;20041;-71
2024/01/15 02:55:02;;;;;;;3.10;1.10;;;;;;;17.47;36.95;100243.19;4968245;28;20058;-70
2024/01/15 02:57:27;;;;;;;4.85;0.90;;;;;;;17.36;36.89;100225.66;4968180;28;20085;-72
2024/01/15 02:59:52;;;;;;;2.30;0.93;;;;;;;17.42;37.11;100248.03;4968419;28;20041;-72
2024/01/15 03:02:18;;;;;;;2.42;0.90;;;;;;;17.37;36.84;100234.41;4967650;28;20031;-72
2024/01/15 03:04:44;;;;;;;6.20;1.23;;;;;;;17.45;37.15;100253.03;4967696;28;20472;-72
2024/01/15 03:07:09;;;;;;;5.45;1.15;;;;;;;17.35;37.26;100238.97;4967525;28;20023;-71
2024/01/15 03:09:34;;;;;;;5.80;1.40;;;;;;;17.31;37.36;100241.06;4968006;28;20042;-71
2024/01/15 03:12:00;;;;;;;3.90;1.00;;;;;;;17.34;37.11;100247.84;4967662;28;20038;-72
2024/01/15 03:14:26;;;;;;;5.07;1.20;;;;;;;17.31;37.03;100248.13;4967436;28;20369;-73
2024/01/15 03:16:51;;;;;;;4.38;1.30;;;;;;;17.37;37.14;100253.69;4967743;28;20577;-70
2024/01/15 03:19:17;;;;;;;5.38;1.38;;;;;;;17.30;36.99;100244.63;4968317;28;20400;-71
2024/01/15 03:21:42;;;;;;;5.45;1.27;;;;;;;17.36;37.06;100254.66;4968292;28;20070;-72
2024/01/15 03:24:07;;;;;;;2.17;0.80;;;;;;;17.27;37.40;100239.63;4968150;28;20394;-72
2024/01/15 03:26:32;;;;;;;4.88;1.20;;;;;;;17.26;37.12;100234.50;4968253;28;20039;-71
2024/01/15 03:28:58;;;;;;;4.73;1.23;;;;;;;17.35;37.30;100238.97;4968132;28;20081;-71
2024/01/15 03:31:23;;;;;;;8.93;1.30;;;;;;;17.29;37.44;100236.88;4968065;28;20284;-73
2024/01/15 03:33:48;;;;;;;5.07;1.07;;;;;;;17.25;37.68;100227.59;4967865;28;20089;-71
2024/01/15 03:36:13;;;;;;;5.60;1.50;;;;;;;17.22;37.01;100224.22;4968067;28;20292;-72
2024/01/15 03:38:42;;;;;;;5.40;1.27;;;;;;;17.24;37.49;100232.00;4967885;28;20734;-71
2024/01/15 03:41:08;;;;;;;5.57;1.33;;;;;;;17.32;37.48;100250.63;4968191;28;20093;-71
2024/01/15 03:43:33;;;;;;;5.45;1.17;;;;;;;17.23;37.73;100233.81;4967580;28;20035;-72
2024/01/15 03:45:58;;;;;;;4.35;1.02;;;;;;;17.29;37.58;100239.50;4968086;28;20045;-72
2024/01/15 03:48:24;;;;;;;4.85;1.00;;;;;;;17.23;37.61;100228.53;4967783;28;20097;-71
2024/01/15 03:50:49;;;;;;;5.10;0.90;;;;;;;17.27;37.53;100223.84;4967695;28;20613;-72
2024/01/15 03:53:14;;;;;;;5.60;1.20;;;;;;;17.26;37.52;100232.72;4967848;28;20121;-72
2024/01/15 03:55:40;;;;;;;5.03;1.00;;;;;;;17.19;37.56;100215.78;4967563;28;20133;-71
2024/01/15 03:58:05;;;;;;;4.70;1.02;;;;;;;17.26;37.49;100235.34;4967857;28;20050;-72
2024/01/15 04:00:30;;;;;;;5.82;1.08;;;;;;;17.27;37.66;100226.47;4967805;28;20381;-73
2024/01/15 04:02:56;;;;;;;7.53;1.80;;;;;;;17.28;37.94;100227.31;4966749;28;20039;-71
2024/01/15 04:05:21;;;;;;;6.50;1.17;;;;;;;17.17;37.86;100194.84;4967128;28;20805;-72
2024/01/15 04:07:46;;;;;;;6.35;1.10;;;;;;;17.26;37.93;100213.44;4967766;28;20042;-71
2024/01/15 04:10:11;;;;;;;5.30;1.17;;;;;;;17.17;37.79;100194.84;4967735;28;20035;-71
2024/01/15 04:12:37;;;;;;;8.38;1.80;;;;;;;17.15;37.89;100196.78;4967897;28;20456;-72
2024/01/15 04:15:03;;;;;;;3.53;0.88;;;;;;;17.15;37.68;100204.69;4967504;28;20051;-71
2024/01/15 04:17:28;;;;;;;6.25;1.17;;;;;;;17.24;37.60;100210.94;4967617;28;20039;-72
2024/01/15 04:19:54;;;;;;;6.07;1.33;;;;;;;17.22;37.77;100205.81;4967504;28;20476;-71
2024/01/15 04:22:19;;;;;;;4.95;1.05;;;;;;;17.22;37.97;100207.63;4967878;28;20027;-71
2024/01/15 04:24:44;;;;;;;5.65;1.05;;;;;;;17.13;37.99;100185.56;4967471;28;20468;-71
2024/01/15 04:27:09;;;;;;;5.40;1.30;;;;;;;17.13;37.88;100192.59;4965655;28;20130;-72
2024/01/15 04:29:37;;;;;;;6.25;1.08;;;;;;;17.20;38.07;100193.75;4967430;28;20042;-72
2024/01/15 04:32:03;;;;;;;6.88;1.30;;;;;;;17.14;37.74;100186.38;4967262;28;20038;-72
2024/01/15 04:34:28;;;;;;;5.05;1.00;;;;;;;17.12;38.01;100185.69;4967603;28;20038;-71
2024/01/15 04:36:54;;;;;;;5.75;1.33;;;;;;;17.19;37.67;100194.72;4967593;28;20088;-72
2024/01/15 04:39:19;;;;;;;9.25;1.10;;;;;;;17.19;37.76;100194.72;4967211;28;20031;-72
2024/01/15 04:41:44;;;;;;;5.40;1.40;;;;;;;17.13;37.69;100195.25;4967145;28;20034;-72
2024/01/15 04:44:09;;;;;;;6.93;1.10;;;;;;;17.08;37.89;100185.09;4967409;28;20398;-71
2024/01/15 04:46:35;;;;;;;4.63;1.02;;;;;;;17.12;37.63;100190.97;4967459;28;20037;-71
2024/01/15 04:49:00;;;;;;;4.68;0.98;;;;;;;17.15;37.69;100196.78;4967442;28;20402;-71
2024/01/15 04:51:25;;;;;;;5.78;1.17;;;;;;;17.08;37.86;100184.28;4967321;28;20046;-70
2024/01/15 04:53:50;;;;;;;7.10;0.95;;;;;;;17.08;37.64;100181.66;4967398;28;20496;-71
2024/01/15 04:56:16;;;;;;;5.00;0.85;;;;;;;17.10;37.68;100187.59;4968843;28;20054;-70
2024/01/15 04:58:41;;;;;;;4.47;1.13;;;;;;;17.14;37.97;100195.09;4970732;28;20427;-71
2024/01/15 05:01:08;;;;;;;4.20;0.88;;;;;;;17.09;37.72;100184.16;4970818;28;20039;-72
2024/01/15 05:03:33;;;;;;;5.57;1.02;;;;;;;17.13;37.87;100188.19;4968974;28;20045;-71
2024/01/15 05:05:58;;;;;;;6.85;0.98;;;;;;;17.09;37.78;100185.97;4969574;28;20039;-70
2024/01/15 05:08:23;;;;;;;6.13;1.27;;;;;;;17.06;37.70;100173.88;4970074;28;20031;-72
2024/01/15 05:10:49;;;;;;;4.22;1.00;;;;;;;17.15;37.75;100190.69;4969903;28;20133;-72
2024/01/15 05:13:14;;;;;;;6.13;1.02;;;;;;;17.10;37.97;100175.31;4969411;28;20038;-71
2024/01/15 05:15:40;;;;;;;4.32;0.90;;;;;;;17.07;37.80;100166.81;4969891;28;20114;-72
2024/01/15 05:18:06;;;;;;;5.10;0.77;;;;;;;17.14;37.45;100179.31;4970257;28;20455;-71
2024/01/15 05:20:31;;;;;;;3.58;0.90;;;;;;;17.15;37.72;100174.91;4970342;28;20081;-72
2024/01/15 05:22:56;;;;;;;3.70;1.10;;;;;;;17.14;37.65;100171.41;4969936;28;20039;-71
2024/01/15 05:25:22;;;;;;;5.35;1.05;;;;;;;17.17;37.66;100165.06;4970131;28;20129;-72
2024/01/15 05:27:47;;;;;;;3.53;0.70;;;;;;;17.18;37.65;100167.56;4970319;28;20027;-72
2024/01/15 05:30:13;;;;;;;5.28;0.98;;;;;;;17.12;37.70;100148.84;4970002;28;20027;-71
2024/01/15 05:32:38;;;;;;;3.65;0.70;;;;;;;17.22;38.24;100165.47;4970295;28;20158;-71
2024/01/15 05:35:04;;;;;;;3.45;0.65;;;;;;;17.25;38.08;100152.03;4969712;28;20038;-71
2024/01/15 05:37:29;;;;;;;4.22;0.70;;;;;;;17.34;38.67;100166.19;4970051;28;20197;-72
2024/01/15 05:39:54;;;;;;;5.40;1.17;;;;;;;17.31;38.51;100145.41;4969897;28;20472;-72
2024/01/15 05:42:20;;;;;;;3.47;0.97;;;;;;;17.36;38.53;100144.03;4970054;28;20114;-71
2024/01/15 05:44:45;;;;;;;4.15;0.80;;;;;;;17.50;38.21;100160.38;4969715;28;20264;-72
2024/01/15 05:47:10;;;;;;;2.90;0.80;;;;;;;17.46;38.42;100143.19;4969449;28;20049;-73
2024/01/15 05:49:37;;;;;;;3.60;0.80;;;;;;;17.54;38.13;100154.72;4969661;28;20144;-71
2024/01/15 05:52:02;;;;;;;2.78;0.68;;;;;;;17.56;38.03;100155.41;4969833;28;20441;-71
2024/01/15 05:54:27;;;;;;;2.47;0.70;;;;;;;17.56;38.19;100142.25;4969498;28;20031;-71
2024/01/15 05:56:52;;;;;;;2.80;0.63;;;;;;;17.66;37.90;100154.59;4969298;28;20079;-71
2024/01/15 05:59:18;;;;;;;2.58;0.70;;;;;;;17.61;37.85;100136.56;4969844;28;20122;-71
2024/01/15 06:01:43;;;;;;;3.13;0.80;;;;;;;17.63;37.81;100137.25;4969458;28;20075;-72
2024/01/15 06:04:08;;;;;;;3.47;0.70;;;;;;;17.68;38.01;100140.28;4969433;28;20045;-71
2024/01/15 06:06:34;;;;;;;3.92;0.80;;;;;;;17.75;38.04;100151.97;4969637;28;20038;-70
2024/01/15 06:09:05;;;;;;;2.90;1.00;;;;;;;17.69;37.73;100138.47;4969595;28;20038;-71
2024/01/15 06:11:34;;;;;;;4.30;0.93;;;;;;;17.77;38.06;100141.28;4969733;28;20030;-70
2024/01/15 06:14:02;;;;;;;3.15;0.70;;;;;;;17.73;38.12;100135.44;4969328;28;20397;-70
2024/01/15 06:16:28;;;;;;;3.95;0.98;;;;;;;17.79;37.99;100139.34;4969462;28;20191;-70
2024/01/15 06:18:54;;;;;;;2.88;0.70;;;;;;;17.80;38.28;100130.47;4968913;28;20047;-71
2024/01/15 06:21:20;;;;;;;2.25;0.70;;;;;;;17.80;38.26;100138.38;4969199;28;20085;-70
2024/01/15 06:23:45;;;;;;;3.67;0.75;;;;;;;17.76;38.42;100124.63;4967681;28;20039;-70
2024/01/15 06:26:13;;;;;;;5.10;1.15;;;;;;;17.84;38.31;100150.28;4969068;28;20046;-71
2024/01/15 06:28:39;;;;;;;4.28;0.70;;;;;;;17.77;38.53;100133.38;4968705;28;20097;-71
2024/01/15 06:31:06;;;;;;;1.60;0.55;;;;;;;17.86;38.31;100140.41;4968918;28;20026;-71
2024/01/15 06:33:32;;;;;;;3.63;1.10;;;;;;;17.84;38.44;100138.91;4969354;28;20035;-71
2024/01/15 06:35:57;;;;;;;5.40;0.90;;;;;;;17.83;38.71;100127.56;4969058;28;20118;-72
2024/01/15 06:38:23;;;;;;;3.63;0.63;;;;;;;17.90;38.81;100138.41;4968941;28;20062;-71
2024/01/15 06:40:48;;;;;;;5.47;1.10;;;;;;;17.92;38.89;100137.25;4967521;28;20475;-71
2024/01/15 06:43:15;;;;;;;4.57;0.77;;;;;;;17.84;38.89;100125.75;4968862;28;20054;-71
2024/01/15 06:45:40;;;;;;;3.45;0.93;;;;;;;17.89;38.92;100136.72;4967805;28;20501;-70
2024/01/15 06:48:07;;;;;;;4.35;0.80;;;;;;;17.92;38.92;100144.34;4968586;28;20058;-70
2024/01/15 06:50:33;;;;;;;4.40;0.80;;;;;;;17.86;38.73;100124.59;4967871;28;20049;-70
2024/01/15 06:52:58;;;;;;;4.15;0.80;;;;;;;17.94;38.99;100140.63;4968033;28;20039;-71
2024/01/15 06:55:23;;;;;;;2.88;0.70;;;;;;;17.93;38.97;100140.75;4967691;28;20023;-71
2024/01/15 06:57:49;;;;;;;2.92;0.82;;;;;;;17.86;38.94;100123.78;4967752;28;20045;-69
2024/01/15 07:00:15;;;;;;;2.55;0.68;;;;;;;17.95;38.91;100136.97;4967677;28;20027;-71
2024/01/15 07:02:40;;;;;;;4.43;0.70;;;;;;;17.95;39.03;100136.97;4966897;28;20054;-73
2024/01/15 07:05:06;;;;;;;3.00;0.90;;;;;;;17.98;39.09;100135.88;4968498;28;20042;-71
2024/01/15 07:07:31;;;;;;;5.65;1.02;;;;;;;17.98;38.85;100135.88;4968285;28;20101;-72
2024/01/15 07:09:56;;;;;;;3.95;0.90;;;;;;;17.97;38.76;100130.75;4968291;28;20471;-72
2024/01/15 07:12:23;;;;;;;7.43;1.17;;;;;;;17.95;38.75;100141.44;4968202;28;20027;-71
2024/01/15 07:14:48;;;;;;;5.22;0.80;;;;;;;17.89;38.74;100129.63;4968312;28;20431;-74
2024/01/15 07:17:14;;;;;;;3.58;0.80;;;;;;;17.95;38.66;100147.53;4968128;28;20082;-73
2024/01/15 07:19:40;;;;;;;4.78;0.90;;;;;;;17.88;39.07;100130.63;4982057;28;20073;-70
2024/01/15 07:22:06;;;;;;;3.70;0.80;;;;;;;17.82;38.77;100120.59;4966996;28;20062;-76
2024/01/15 07:24:34;;;;;;;3.40;0.65;;;;;;;17.93;39.11;100143.38;4967201;28;20041;-76
2024/01/15 07:26:59;;;;;;;5.13;1.00;;;;;;;17.95;39.48;100146.72;4967294;28;20167;-70
2024/01/15 07:29:24;;;;;;;6.10;0.90;;;;;;;17.88;39.67;100127.13;4966887;28;20067;-71
2024/01/15 07:31:50;;;;;;;4.95;1.00;;;;;;;17.88;39.65;100128.00;4966308;28;20041;-72
2024/01/15 07:34:16;;;;;;;3.47;0.70;;;;;;;17.88;39.92;100125.34;4967509;28;20073;-74
2024/01/15 07:36:43;;;;;;;3.90;0.90;;;;;;;17.94;39.84;100129.22;4966605;28;20042;-74
2024/01/15 07:39:09;;;;;;;2.47;0.73;;;;;;;18.00;39.73;100141.00;4967179;28;20054;-74
2024/01/15 07:41:34;;;;;;;4.38;0.75;;;;;;;17.97;39.47;100133.38;4967047;28;20066;-74
2024/01/15 07:43:59;;;;;;;5.65;0.85;;;;;;;17.97;39.59;100142.13;4967326;28;20023;-74
2024/01/15 07:46:25;;;;;;;3.67;0.80;;;;;;;17.99;39.23;100142.81;4967007;28;20522;-73
2024/01/15 07:48:55;;;;;;;3.88;0.70;;;;;;;17.88;39.45;100119.22;4966537;28;20054;-72
2024/01/15 07:51:21;;;;;;;3.17;0.65;;;;;;;17.88;40.00;100121.84;4966041;28;20041;-73
2024/01/15 07:53:46;;;;;;;5.25;0.98;;;;;;;18.00;40.00;100154.19;4967062;28;20031;-72
2024/01/15 07:56:12;;;;;;;5.15;0.90;;;;;;;18.00;39.64;100162.94;4966946;28;20050;-72
2024/01/15 07:58:37;;;;;;;4.85;0.85;;;;;;;17.92;40.06;100149.63;4967653;28;20054;-73
2024/01/15 08:01:02;;;;;;;4.63;0.90;;;;;;;17.99;39.78;100165.69;4967738;28;20487;-72
2024/01/15 08:03:28;;;;;;;2.90;0.70;;;;;;;18.01;40.29;100171.66;4966952;28;20499;-73
2024/01/15 08:05:54;;;;;;;3.63;0.63;;;;;;;18.00;40.13;100164.75;4966440;28;20575;-72
2024/01/15 08:08:21;;;;;;;3.78;0.98;;;;;;;17.94;40.27;100156.44;4967203;28;20386;-72
2024/01/15 08:10:46;;;;;;;5.43;1.00;;;;;;;18.02;40.26;100163.63;4967312;28;20125;-72
2024/01/15 08:13:11;;;;;;;6.78;1.13;;;;;;;17.95;40.71;100155.44;4967189;28;20066;-72
2024/01/15 08:15:37;;;;;;;4.80;1.05;;;;;;;18.07;41.07;100173.75;4967087;28;20027;-73
2024/01/15 08:18:02;;;;;;;4.60;0.90;;;;;;;18.08;40.86;100170.16;4966016;28;20053;-72
2024/01/15 08:20:28;;;;;;;4.55;0.75;;;;;;;18.10;41.29;100176.94;4967374;28;20123;-74
2024/01/15 08:22:53;;;;;;;8.45;2.05;;;;;;;18.12;41.04;100174.19;4967386;28;20062;-73
2024/01/15 08:25:18;;;;;;;5.07;0.82;;;;;;;18.07;41.11;100168.47;4967527;28;20402;-72
2024/01/15 08:27:43;;;;;;;5.15;0.70;;;;;;;18.15;40.99;100168.63;4967459;28;20035;-73
2024/01/15 08:30:10;;;;;;;4.07;0.88;;;;;;;18.15;40.74;100175.69;4966987;28;20022;-73
2024/01/15 08:32:40;;;;;;;5.65;0.93;;;;;;;18.08;40.85;100155.13;4970750;28;20030;-74
2024/01/15 08:35:06;;;;;;;4.80;0.80;;;;;;;18.20;40.84;100157.63;4969418;28;20073;-76
2024/01/15 08:37:31;;;;;;;5.95;0.93;;;;;;;18.26;40.79;100155.28;4970817;28;20045;-72
2024/01/15 08:39:56;;;;;;;5.50;0.82;;;;;;;18.48;40.44;100174.38;4971011;28;20045;-72
2024/01/15 08:42:22;;;;;;;4.57;0.70;;;;;;;18.46;40.21;100161.31;4971175;28;20070;-72
2024/01/15 08:44:47;;;;;;;3.40;0.60;;;;;;;18.55;40.41;100175.47;4970854;28;20039;-71
2024/01/15 08:47:12;;;;;;;3.60;0.70;;;;;;;18.52;40.41;100165.19;4971005;28;20121;-71
2024/01/15 08:49:38;;;;;;;3.60;0.80;;;;;;;18.63;40.35;100182.66;4971282;28;20034;-69
2024/01/15 08:52:03;;;;;;;4.15;0.85;;;;;;;18.63;40.23;100180.84;4971025;28;20094;-69
2024/01/15 08:54:28;;;;;;;5.57;1.23;;;;;;;18.64;39.59;100176.41;4970540;28;20031;-68
2024/01/15 08:56:54;;;;;;;3.28;0.73;;;;;;;18.52;39.84;100161.72;4970872;28;20035;-68
2024/01/15 08:59:24;;;;;;;3.25;1.05;;;;;;;18.55;39.83;100179.91;4970625;28;20090;-68
2024/01/15 09:01:50;;;;;;;8.18;1.00;;;;;;;18.47;39.65;100178.00;4970170;28;20423;-68
2024/01/15 09:04:15;;;;;;;5.10;0.82;;;;;;;18.43;39.69;100180.06;4970137;28;20035;-69
2024/01/15 09:06:45;;;;;;;4.63;0.88;;;;;;;18.36;39.82;100178.13;4969860;28;20023;-68
2024/01/15 09:09:10;;;;;;;5.05;0.85;;;;;;;18.37;40.02;100174.53;4970119;28;20042;-68
2024/01/15 09:11:36;;;;;;;4.28;0.65;;;;;;;18.33;40.47;100178.44;4969786;28;20034;-68
2024/01/15 09:14:01;;;;;;;4.55;0.80;;;;;;;18.25;40.42;100181.78;4970082;28;20121;-72
2024/01/15 09:16:26;;;;;;;5.30;0.77;;;;;;;18.26;40.86;100184.28;4966990;28;20039;-69
2024/01/15 09:18:51;;;;;;;4.15;0.88;;;;;;;18.18;40.93;100175.41;4966531;28;20335;-69
2024/01/15 09:21:17;;;;;;;2.25;0.40;;;;;;;18.19;40.75;100185.00;4965430;28;20379;-71
2024/01/15 09:23:42;;;;;;;6.78;1.27;;;;;;;18.20;40.60;100182.22;4970207;28;20026;-68
2024/01/15 09:26:09;;;;;;;6.60;0.80;;;;;;;18.29;41.00;100193.69;4969576;28;20035;-69
2024/01/15 09:28:34;;;;;;;4.60;0.80;;;;;;;18.31;41.32;100192.59;4969687;28;20039;-70
2024/01/15 09:30:59;;;;;;;3.83;0.73;;;;;;;18.25;40.91;100173.88;4969716;28;20046;-70
2024/01/15 09:33:25;;;;;;;6.43;0.95;;;;;;;18.24;41.24;100164.28;4969427;28;20058;-69
2024/01/15 09:35:50;;;;;;;3.90;0.98;;;;;;;18.36;41.45;100178.13;4965344;28;20058;-69
2024/01/15 09:38:15;;;;;;;6.53;0.90;;;;;;;18.36;40.85;100179.00;4967288;28;20039;-70
2024/01/15 09:40:43;;;;;;;4.97;1.20;;;;;;;18.36;40.72;100171.06;4967787;28;20039;-69
2024/01/15 09:43:08;;;;;;;6.88;1.25;;;;;;;18.34;40.96;100169.53;4967768;28;20399;-68
2024/01/15 09:45:34;;;;;;;3.78;1.02;;;;;;;18.23;40.77;100158.19;4967747;28;20034;-68
2024/01/15 09:47:59;;;;;;;5.43;0.70;;;;;;;18.27;40.86;100178.00;4966804;28;20055;-69
2024/01/15 09:50:24;;;;;;;6.00;1.05;;;;;;;18.30;40.91;100192.75;4969635;28;20480;-68
2024/01/15 09:52:50;;;;;;;5.18;1.02;;;;;;;18.25;41.07;100189.69;4968383;28;20383;-68
2024/01/15 09:55:18;;;;;;;5.78;0.82;;;;;;;18.34;40.93;100204.69;4969960;28;20023;-67
2024/01/15 09:57:44;;;;;;;8.80;1.23;;;;;;;18.28;41.22;100200.78;4969641;28;20039;-68
2024/01/15 10:00:10;;;;;;;5.47;0.82;;;;;;;18.35;40.85;100216.88;4969612;28;20074;-68
2024/01/15 10:02:36;;;;;;;4.28;0.98;;;;;;;18.26;41.17;100196.63;4968683;28;20101;-68
2024/01/15 10:05:02;;;;;;;4.10;0.82;;;;;;;18.33;41.08;100207.47;4969577;28;20035;-69
2024/01/15 10:07:29;;;;;;;4.22;0.77;;;;;;;18.36;40.97;100217.69;4969322;28;20125;-68
2024/01/15 10:09:54;;;;;;;6.22;0.90;;;;;;;18.32;40.67;100206.63;4968873;28;20034;-68
2024/01/15 10:12:23;;;;;;;5.32;1.10;;;;;;;18.26;40.64;100201.91;4969614;28;20037;-68
2024/01/15 10:14:49;;;;;;;6.35;1.02;;;;;;;18.34;40.73;100220.50;4969409;28;20034;-70
2024/01/15 10:17:17;;;;;;;7.22;1.00;;;;;;;18.34;40.89;100214.38;4969419;28;20428;-69
2024/01/15 10:19:43;;;;;;;5.75;0.90;;;;;;;18.26;40.83;100192.19;4969125;28;20093;-69
2024/01/15 10:22:12;;;;;;;5.68;0.90;;;;;;;18.33;40.98;100197.72;4967816;28;20448;-69
2024/01/15 10:24:38;;;;;;;4.95;0.80;;;;;;;18.33;41.33;100200.38;4968697;28;20460;-65
2024/01/15 10:27:08;;;;;;;6.00;1.17;;;;;;;18.23;41.59;100176.66;4968432;28;20027;-68
2024/01/15 10:29:34;;;;;;;3.05;0.70;;;;;;;18.36;41.29;100186.91;4966428;28;20035;-70
2024/01/15 10:32:00;;;;;;;5.65;0.93;;;;;;;18.28;40.80;100184.16;4962603;28;20053;-69
2024/01/15 10:34:26;;;;;;;8.10;1.25;;;;;;;18.36;40.56;100196.59;4967404;28;20057;-70
2024/01/15 10:36:55;;;;;;;5.43;0.85;;;;;;;18.37;40.36;100187.72;4967272;28;20034;-69
2024/01/15 10:39:21;;;;;;;6.78;1.08;;;;;;;18.30;40.60;100185.66;4967031;28;20031;-69
2024/01/15 10:41:47;;;;;;;7.07;1.10;;;;;;;18.38;40.67;100203.41;4966324;28;20451;-70
2024/01/15 10:44:12;;;;;;;4.13;1.02;;;;;;;18.30;40.54;100187.47;4967861;28;20031;-68
2024/01/15 10:46:38;;;;;;;4.50;1.00;;;;;;;18.39;40.60;100206.88;4968068;28;20031;-67
2024/01/15 10:49:04;;;;;;;4.47;1.20;;;;;;;18.31;40.49;100182.03;4967628;28;20050;-70
2024/01/15 10:51:30;;;;;;;7.93;1.00;;;;;;;18.34;40.38;100182.72;4968238;28;20041;-68
2024/01/15 10:53:57;;;;;;;6.20;1.13;;;;;;;18.43;40.37;100200.34;4967748;28;20534;-68
2024/01/15 10:56:23;;;;;;;5.40;0.98;;;;;;;18.44;40.36;100191.47;4967988;28;20411;-67
2024/01/15 10:58:50;;;;;;;6.45;0.98;;;;;;;18.43;40.66;100195.06;4968369;28;20454;-67
2024/01/15 11:01:16;;;;;;;5.60;1.40;;;;;;;18.46;40.60;100192.16;4968306;28;20045;-69
2024/01/15 11:03:43;;;;;;;6.65;1.23;;;;;;;18.44;41.09;100189.66;4968530;28;20396;-69
2024/01/15 11:06:19;;;;;;;5.72;1.15;;;;;;;18.49;40.78;100190.06;4967912;28;20031;-67
2024/01/15 11:08:48;;;;;;;6.00;0.80;;;;;;;18.44;41.17;100181.75;4967588;28;20177;-68
2024/01/15 11:11:13;;;;;;;8.68;1.20;;;;;;;18.46;41.05;100190.34;4967458;28;20117;-71
2024/01/15 11:13:44;;;;;;;4.97;1.00;;;;;;;18.56;41.01;100202.69;4967743;28;20117;-68
2024/01/15 11:16:17;;;;;;;4.72;0.80;;;;;;;18.54;40.79;100210.75;4967861;28;20085;-69